Latest Coastal Weather Observations for Burnie Port

IDT60701

Issued at 6:32 am EDT Tuesday 7 February 2023 (issued every 10 minutes, with the page automatically refreshed every 10 minutes)

About coastal observations | Map of coastal stations | Coastal observations for TAS | Marine services | Other Formats
Station Details ID: 091344 Name: BURNIE NTC AWS Lat: -41.05 Lon: 145.91 Height: 0.0 m
Data from the previous 72 hours. | See also: Recent months for locations in Tasmania
Date/Time
EDT
Wind Sea
Height
m
Swell Vis
km
Cloud Weather Temp
°C
Press
MSL
hPa
Rain since
9am
mm
Dir  Spd
kts
Gust
kts
Height
m
Period
s
Dir
07/06:30am WSW 3 5 - - - - - - - 14.1 1016.4 -
07/06:00am WSW 4 6 - - - - - - - 13.9 1016.3 -
07/05:30am W 7 9 - - - - - - - 13.5 1016.1 -
07/05:00am WNW 5 8 - - - - - - - 13.5 1016.1 -
07/04:30am WNW 6 9 - - - - - - - 13.8 1016.0 -
07/04:00am WNW 5 7 - - - - - - - 14.1 1016.1 -
07/03:30am W 4 6 - - - - - - - 14.2 1016.2 -
07/03:00am W 4 9 - - - - - - - 14.4 1016.1 -
07/02:30am WSW 4 9 - - - - - - - 14.6 1016.1 -
07/02:00am W 4 8 - - - - - - - 14.6 1016.1 -
07/01:30am W 3 7 - - - - - - - 14.7 1016.3 -
07/01:00am W 4 7 - - - - - - - 14.6 1016.4 -
07/12:30am WNW 5 9 - - - - - - - 14.8 1016.5 -
07/12:00am WSW 5 11 - - - - - - - 15.2 1016.6 -
 
Date/Time
EDT
Wind Sea
Height
m
Swell Vis
km
Cloud Weather Temp
°C
Press
MSL
hPa
Rain since
9am
mm
Dir  Spd
kts
Gust
kts
Height
m
Period
s
Dir
06/11:30pm WSW 7 14 - - - - - - - 15.5 1016.8 -
06/11:00pm W 6 9 - - - - - - - 15.8 1017.0 -
06/10:30pm W 6 14 - - - - - - - 16.1 1016.7 -
06/10:00pm W 5 8 - - - - - - - 16.4 1016.7 -
06/09:30pm W 4 9 - - - - - - - 16.8 1016.6 -
06/09:00pm WSW 5 9 - - - - - - - 17.1 1016.3 -
06/08:30pm W 7 14 - - - - - - - 17.7 1016.0 -
06/08:00pm SW 9 15 - - - - - - - 18.0 1015.8 -
06/07:30pm SW 9 15 - - - - - - - 19.0 1015.5 -
06/07:00pm SW 14 24 - - - - - - - 19.1 1015.4 -
06/06:40pm SW 15 25 - - - - - - - 19.7 1015.0 -
06/06:30pm WSW 11 17 - - - - - - - 20.9 1014.7 -
06/06:00pm WSW 11 19 - - - - - - - 21.4 1014.6 -
06/05:30pm WSW 11 22 - - - - - - - 21.9 1014.7 -
06/05:00pm WSW 12 23 - - - - - - - 21.4 1014.8 -
06/04:50pm WSW 15 26 - - - - - - - 21.2 1014.9 -
06/04:30pm WSW 13 24 - - - - - - - 21.5 1014.8 -
06/04:10pm SW 15 25 - - - - - - - 21.5 1014.9 -
06/04:00pm SW 10 16 - - - - - - - 21.9 1014.8 -
06/03:30pm WSW 12 23 - - - - - - - 21.8 1015.0 -
06/03:00pm WSW 9 21 - - - - - - - 21.9 1015.1 -
06/02:30pm WSW 12 20 - - - - - - - 21.5 1015.2 -
06/02:00pm WSW 9 15 - - - - - - - 22.4 1015.3 -
06/01:30pm W 11 18 - - - - - - - 21.9 1015.3 -
06/01:00pm SW 11 21 - - - - - - - 20.8 1015.5 -
06/12:30pm WSW 11 20 - - - - - - - 20.3 1015.7 -
06/12:00pm WSW 10 18 - - - - - - - 20.2 1015.8 -
06/11:30am WSW 9 18 - - - - - - - 19.6 1016.0 -
06/11:00am WSW 9 17 - - - - - - - 18.9 1016.1 -
06/10:30am WSW 7 15 - - - - - - - 18.5 1016.1 -
06/10:00am W 9 17 - - - - - - - 18.2 1015.7 -
06/09:30am WSW 8 17 - - - - - - - 17.6 1015.7 -
06/09:00am W 10 17 - - - - - - - 16.7 1015.7 -
06/08:30am W 7 12 - - - - - - - 16.1 1015.7 -
06/08:00am WNW 7 11 - - - - - - - 15.4 1015.4 -
06/07:30am WNW 6 9 - - - - - - - 14.7 1015.4 -
06/07:00am WNW 6 9 - - - - - - - 14.4 1015.1 -
06/06:30am WNW 5 8 - - - - - - - 14.3 1014.7 -
06/06:00am WNW 5 7 - - - - - - - 14.1 1014.4 -
06/05:30am W 5 10 - - - - - - - 14.6 1014.1 -
06/05:00am WNW 4 8 - - - - - - - 14.6 1013.9 -
06/04:30am WSW 6 12 - - - - - - - 14.5 1013.7 -
06/04:00am WSW 5 9 - - - - - - - 14.6 1013.5 -
06/03:30am WSW 6 14 - - - - - - - 14.7 1013.5 -
06/03:00am WSW 7 12 - - - - - - - 14.6 1013.6 -
06/02:30am WSW 8 15 - - - - - - - 14.6 1013.5 -
06/02:00am W 6 11 - - - - - - - 14.4 1013.6 -
06/01:30am W 6 11 - - - - - - - 14.4 1013.8 -
06/01:00am W 6 11 - - - - - - - 14.5 1013.6 -
06/12:30am W 7 16 - - - - - - - 14.6 1013.7 -
06/12:00am W 6 13 - - - - - - - 14.8 1013.8 -
 
Date/Time
EDT
Wind Sea
Height
m
Swell Vis
km
Cloud Weather Temp
°C
Press
MSL
hPa
Rain since
9am
mm
Dir  Spd
kts
Gust
kts
Height
m
Period
s
Dir
05/11:30pm W 7 13 - - - - - - - 14.9 1013.6 -
05/11:00pm WSW 8 15 - - - - - - - 15.1 1013.8 -
05/10:30pm W 6 12 - - - - - - - 15.3 1013.9 -
05/10:00pm W 7 13 - - - - - - - 15.5 1013.9 -
05/09:30pm W 7 13 - - - - - - - 15.8 1013.7 -
05/09:00pm WSW 6 15 - - - - - - - 16.3 1013.2 -
05/08:30pm WSW 9 19 - - - - - - - 17.0 1013.0 -
05/08:00pm WSW 7 19 - - - - - - - 17.9 1012.7 -
05/07:30pm WSW 7 16 - - - - - - - 18.7 1012.4 -
05/07:00pm WSW 6 18 - - - - - - - 19.8 1012.1 -
05/06:30pm WSW 10 17 - - - - - - - 20.3 1011.7 -
05/06:00pm W 13 21 - - - - - - - 21.0 1011.8 -
05/05:30pm W 14 20 - - - - - - - 21.4 1011.7 -
05/05:00pm WSW 9 16 - - - - - - - 21.9 1011.6 -
05/04:30pm W 10 17 - - - - - - - 22.6 1011.6 -
05/04:00pm WSW 9 17 - - - - - - - 22.5 1011.8 -
05/03:30pm WSW 11 18 - - - - - - - 21.4 1011.9 -
05/03:00pm WSW 9 19 - - - - - - - 20.6 1012.2 -
05/02:30pm SW 9 17 - - - - - - - 20.4 1012.3 -
05/02:00pm WSW 10 18 - - - - - - - 19.9 1012.7 -
05/01:30pm SW 13 22 - - - - - - - 18.9 1012.9 -
05/01:00pm SW 12 19 - - - - - - - 18.8 1012.9 -
05/12:30pm SW 11 17 - - - - - - - 18.4 1013.0 -
05/12:00pm SW 13 23 - - - - - - - 17.9 1013.0 -
05/11:30am WSW 11 21 - - - - - - - 17.4 1013.0 -
05/11:00am SW 11 18 - - - - - - - 17.5 1013.0 -
05/10:30am SW 13 20 - - - - - - - 16.6 1013.0 -
05/10:00am SW 10 19 - - - - - - - 16.3 1013.0 -
05/09:30am SW 9 14 - - - - - - - 16.0 1012.8 -
05/09:00am SW 11 19 - - - - - - - 16.2 1012.6 -
05/08:30am WSW 10 18 - - - - - - - 16.0 1012.3 -
05/08:00am WSW 7 13 - - - - - - - 15.7 1011.8 -
05/07:30am WSW 8 13 - - - - - - - 15.3 1011.1 -
05/07:00am WSW 8 13 - - - - - - - 15.0 1010.8 -
05/06:30am WSW 8 13 - - - - - - - 14.9 1010.3 -
05/06:00am WSW 9 17 - - - - - - - 15.0 1010.1 -
05/05:30am W 9 15 - - - - - - - 15.0 1009.4 -
05/05:00am WSW 7 13 - - - - - - - 15.1 1009.0 -
05/04:30am WSW 7 13 - - - - - - - 15.1 1008.5 -
05/04:00am WSW 8 14 - - - - - - - 15.1 1008.2 -
05/03:30am WSW 5 11 - - - - - - - 15.1 1008.0 -
05/03:00am W 5 11 - - - - - - - 15.1 1007.7 -
05/02:30am W 6 11 - - - - - - - 14.8 1007.4 -
05/02:00am W 6 10 - - - - - - - 14.8 1007.7 -
05/01:30am WNW 7 10 - - - - - - - 14.5 1007.5 -
05/01:00am W 5 12 - - - - - - - 14.4 1007.1 -
05/12:30am WSW 10 17 - - - - - - - 14.6 1006.9 -
05/12:00am WSW 7 13 - - - - - - - 14.6 1006.8 -
 
Date/Time
EDT
Wind Sea
Height
m
Swell Vis
km
Cloud Weather Temp
°C
Press
MSL
hPa
Rain since
9am
mm
Dir  Spd
kts
Gust
kts
Height
m
Period
s
Dir
04/11:30pm WSW 7 13 - - - - - - - 14.8 1006.9 -
04/11:00pm W 6 12 - - - - - - - 14.8 1007.0 -
04/10:30pm WSW 8 13 - - - - - - - 14.9 1006.8 -
04/10:00pm W 7 14 - - - - - - - 15.1 1006.5 -
04/09:30pm WSW 10 24 - - - - - - - 15.3 1005.9 -
04/09:00pm WSW 11 21 - - - - - - - 15.5 1005.3 -
04/08:30pm WSW 11 25 - - - - - - - 15.9 1004.6 -
04/08:00pm WSW 10 19 - - - - - - - 16.4 1004.2 -
04/07:30pm SW 13 31 - - - - - - - 16.9 1003.5 -
04/07:04pm SW 15 29 - - - - - - - 16.8 1003.0 -
04/07:00pm SW 14 29 - - - - - - - 16.8 1003.0 -
04/06:30pm SW 15 23 - - - - - - - 17.3 1002.2 -
04/06:08pm SW 15 26 - - - - - - - 17.2 1001.9 -
04/06:00pm SW 13 22 - - - - - - - 16.8 1001.9 -
04/05:30pm SW 17 28 - - - - - - - 16.1 1001.5 -
04/05:00pm WSW 15 30 - - - - - - - 16.4 1001.2 -
04/04:35pm WSW 15 26 - - - - - - - 16.9 1001.0 -
04/04:30pm WSW 14 30 - - - - - - - 17.1 1000.8 -
04/04:00pm WSW 16 28 - - - - - - - 16.6 1000.4 -
04/03:30pm WSW 15 25 - - - - - - - 17.2 999.9 -
04/03:03pm SW 15 27 - - - - - - - 16.9 999.6 -
04/03:00pm WSW 13 25 - - - - - - - 17.5 999.4 -
04/02:30pm WSW 15 27 - - - - - - - 17.8 999.0 -
04/02:23pm WSW 15 27 - - - - - - - 17.8 998.9 -
04/02:00pm WSW 12 29 - - - - - - - 18.8 998.6 -
04/01:49pm WSW 15 30 - - - - - - - 18.4 998.6 -
04/01:30pm WSW 13 22 - - - - - - - 18.2 998.3 -
04/01:00pm WSW 12 22 - - - - - - - 18.4 998.3 -
04/12:30pm SW 12 23 - - - - - - - 18.4 998.0 -
04/12:00pm WSW 8 15 - - - - - - - 17.8 998.1 -
04/11:30am WSW 8 16 - - - - - - - 17.2 998.0 -
04/11:00am W 7 11 - - - - - - - 16.6 997.6 -
04/10:30am WNW 7 10 - - - - - - - 15.7 997.7 -
04/10:00am WNW 9 12 - - - - - - - 15.2 997.4 -
04/09:30am WNW 7 10 - - - - - - - 15.0 997.1 -
04/09:00am W 6 9 - - - - - - - 14.7 997.0 -
04/08:30am WNW 6 12 - - - - - - - 14.1 996.5 -
04/08:00am WNW 6 12 - - - - - - - 14.0 996.1 -
04/07:30am WNW 6 9 - - - - - - - 13.5 995.5 -
04/07:00am W 5 8 - - - - - - - 13.6 995.3 -

Other formats

Comma delimited format used in spreadsheet applications
http://www.bom.gov.au/fwo/IDT60701/IDT60701.95963.axf

JavaScript Object Notation format (JSON) in row-major order
http://www.bom.gov.au/fwo/IDT60701/IDT60701.95963.json

Data quality

Most of these data are generated automatically and are frequently updated. Quality checks on data are not normally performed. It is possible for incorrect values to appear. Refer to information at About Latest Weather Observations and please check the disclaimer before using these data.